createdAt,value
2023-04-04T00:01:33.468Z,98471.94
2023-04-04T00:04:03.081Z,98470.31
2023-04-04T00:06:32.492Z,98477.09
2023-04-04T00:09:01.891Z,98476.28
2023-04-04T00:11:31.322Z,98474.25
2023-04-04T00:14:00.585Z,98482.09
2023-04-04T00:16:29.891Z,98472.50
2023-04-04T00:18:59.162Z,98472.50
2023-04-04T00:21:28.421Z,98477.78
2023-04-04T00:23:58.050Z,98476.53
2023-04-04T00:26:27.466Z,98473.31
2023-04-04T00:28:56.792Z,98478.97
2023-04-04T00:31:27.468Z,98475.34
2023-04-04T00:33:57.270Z,98484.38
2023-04-04T00:36:27.221Z,98487.13
2023-04-04T00:38:57.767Z,98487.94
2023-04-04T00:41:27.430Z,98477.91
2023-04-04T00:43:56.863Z,98487.25
2023-04-04T00:46:28.089Z,98486.84
2023-04-04T00:48:58.040Z,98478.84
2023-04-04T00:51:27.628Z,98483.59
2023-04-04T00:53:57.019Z,98484.81
2023-04-04T00:56:26.552Z,98480.91
2023-04-04T00:58:57.174Z,98481.84
2023-04-04T01:01:27.040Z,98483.72
2023-04-04T01:03:56.502Z,98484.41
2023-04-04T01:06:26.641Z,98482.09
2023-04-04T01:08:56.611Z,98475.59
2023-04-04T01:11:27.945Z,98474.25
2023-04-04T01:13:57.684Z,98479.63
2023-04-04T01:16:27.346Z,98483.44
2023-04-04T01:18:57.035Z,98485.06
2023-04-04T01:21:28.666Z,98475.19
2023-04-04T01:24:04.836Z,98479.00
2023-04-04T01:26:44.268Z,98487.66
2023-04-04T01:29:13.612Z,98473.44
2023-04-04T01:31:49.208Z,98466.94
2023-04-04T01:34:28.719Z,98464.38
2023-04-04T01:37:19.139Z,98475.47
2023-04-04T01:39:58.853Z,98467.59
2023-04-04T01:42:28.955Z,98472.22
2023-04-04T01:44:59.738Z,98462.47
2023-04-04T01:47:39.863Z,98480.63
2023-04-04T01:50:11.223Z,98474.66
2023-04-04T01:52:41.032Z,98475.97
2023-04-04T01:55:10.929Z,98473.81
2023-04-04T01:57:40.615Z,98468.94
2023-04-04T02:00:11.066Z,98465.16
2023-04-04T02:02:46.731Z,98466.91
2023-04-04T02:05:16.337Z,98457.31
2023-04-04T02:07:50.746Z,98462.13
2023-04-04T02:10:32.083Z,98460.53
2023-04-04T02:13:01.548Z,98453.78
2023-04-04T02:15:31.025Z,98455.41
2023-04-04T02:18:02.025Z,98445.50
2023-04-04T02:20:31.745Z,98442.13
2023-04-04T02:23:01.178Z,98440.78
2023-04-04T02:25:30.457Z,98439.16
2023-04-04T02:27:59.704Z,98434.38
2023-04-04T02:30:29.461Z,98432.22
2023-04-04T02:32:59.860Z,98428.03
2023-04-04T02:35:29.332Z,98424.25
2023-04-04T02:37:58.673Z,98425.56
2023-04-04T02:40:40.020Z,98418.78
2023-04-04T02:43:09.718Z,98407.19
2023-04-04T02:45:40.267Z,98414.31
2023-04-04T02:48:29.893Z,98404.28
2023-04-04T02:51:03.314Z,98401.03
2023-04-04T02:53:33.675Z,98401.28
2023-04-04T02:56:14.525Z,98401.97
2023-04-04T02:58:43.734Z,98388.72
2023-04-04T03:01:13.110Z,98382.38
2023-04-04T03:03:42.464Z,98379.56
2023-04-04T03:06:12.238Z,98386.03
2023-04-04T03:08:41.541Z,98379.81
2023-04-04T03:11:11.115Z,98374.56
2023-04-04T03:13:40.886Z,98373.88
2023-04-04T03:16:11.295Z,98370.38
2023-04-04T03:18:51.045Z,98364.53
2023-04-04T03:21:23.106Z,98360.06
2023-04-04T03:23:52.303Z,98365.75
2023-04-04T03:26:21.651Z,98375.22
2023-04-04T03:28:51.063Z,98365.59
2023-04-04T03:31:23.106Z,98353.66
2023-04-04T03:33:52.964Z,98352.97
2023-04-04T03:36:24.288Z,98353.25
2023-04-04T03:38:53.573Z,98350.69
2023-04-04T03:41:23.025Z,98343.66
2023-04-04T03:44:17.368Z,98349.75
2023-04-04T03:46:46.840Z,98345.72
2023-04-04T03:49:16.506Z,98334.38
2023-04-04T03:51:45.777Z,98343.00
2023-04-04T03:54:15.033Z,98337.59
2023-04-04T03:56:44.562Z,98332.47
2023-04-04T03:59:14.202Z,98331.59
2023-04-04T04:01:43.575Z,98336.06
2023-04-04T04:04:12.963Z,98322.69
2023-04-04T04:06:44.048Z,98331.34
2023-04-04T04:09:13.347Z,98335.16
2023-04-04T04:11:42.633Z,98342.47
2023-04-04T04:14:12.077Z,98336.66
2023-04-04T04:16:41.692Z,98341.41
2023-04-04T04:19:13.078Z,98340.03
2023-04-04T04:21:44.221Z,98342.47
2023-04-04T04:24:13.576Z,98344.22
2023-04-04T04:26:42.939Z,98357.59
2023-04-04T04:29:12.647Z,98346.53
2023-04-04T04:31:41.942Z,98347.63
2023-04-04T04:34:11.543Z,98351.84
2023-04-04T04:36:42.812Z,98364.00
2023-04-04T04:39:24.305Z,98360.91
2023-04-04T04:42:08.136Z,98368.22
2023-04-04T04:44:40.844Z,98365.00
2023-04-04T04:47:10.118Z,98378.53
2023-04-04T04:49:39.493Z,98370.44
2023-04-04T04:52:12.219Z,98373.41
2023-04-04T04:54:45.468Z,98362.06
2023-04-04T04:57:14.905Z,98377.50
2023-04-04T04:59:46.724Z,98386.56
2023-04-04T05:02:17.345Z,98384.00
2023-04-04T05:04:49.084Z,98381.03
2023-04-04T05:07:19.477Z,98392.41
2023-04-04T05:09:53.779Z,98390.22
2023-04-04T05:12:28.288Z,98387.09
2023-04-04T05:15:00.053Z,98390.47
2023-04-04T05:17:29.893Z,98387.75
2023-04-04T05:20:09.749Z,98388.44
2023-04-04T05:22:44.498Z,98393.41
2023-04-04T05:25:16.594Z,98391.09
2023-04-04T05:27:49.187Z,98391.75
2023-04-04T05:30:21.904Z,98395.78
2023-04-04T05:33:01.051Z,98396.56
2023-04-04T05:35:32.239Z,98399.50
2023-04-04T05:38:13.346Z,98388.34
2023-04-04T05:40:42.616Z,98396.84
2023-04-04T05:43:15.338Z,98397.31
2023-04-04T05:46:04.941Z,98394.78
2023-04-04T05:48:40.429Z,98400.41
2023-04-04T05:51:11.213Z,98390.63
2023-04-04T05:54:09.808Z,98380.69
2023-04-04T05:56:40.503Z,98400.44
2023-04-04T05:59:18.148Z,98389.00
2023-04-04T06:01:56.735Z,98405.69
2023-04-04T06:04:26.269Z,98403.44
2023-04-04T06:06:57.251Z,98404.19
2023-04-04T06:09:27.559Z,98404.56
2023-04-04T06:11:57.163Z,98395.13
2023-04-04T06:14:26.488Z,98404.09
2023-04-04T06:17:06.828Z,98399.66
2023-04-04T06:19:37.402Z,98400.06
2023-04-04T06:22:06.583Z,98401.59
2023-04-04T06:24:39.466Z,98409.09
2023-04-04T06:27:13.228Z,98402.22
2023-04-04T06:29:42.924Z,98405.84
2023-04-04T06:32:12.952Z,98399.44
2023-04-04T06:34:45.066Z,98395.47
2023-04-04T06:37:15.623Z,98401.78
2023-04-04T06:39:53.991Z,98397.78
2023-04-04T06:42:27.228Z,98386.44
2023-04-04T06:45:01.105Z,98385.34
2023-04-04T06:47:43.223Z,98371.00
2023-04-04T06:50:14.102Z,98377.75
2023-04-04T06:52:45.714Z,98379.50
2023-04-04T06:55:15.757Z,98386.81
2023-04-04T06:57:45.355Z,98366.56
2023-04-04T07:00:15.778Z,98385.31
2023-04-04T07:02:45.700Z,98377.88
2023-04-04T07:05:18.120Z,98396.84
2023-04-04T07:07:48.027Z,98398.00
2023-04-04T07:10:17.385Z,98378.94
2023-04-04T07:12:46.792Z,98387.84
2023-04-04T07:15:16.293Z,98395.63
2023-04-04T07:17:45.587Z,98400.34
2023-04-04T07:20:14.950Z,98385.31
2023-04-04T07:22:44.564Z,98389.69
2023-04-04T07:25:14.149Z,98392.56
2023-04-04T07:27:43.346Z,98386.38
2023-04-04T07:30:13.176Z,98389.94
2023-04-04T07:32:42.546Z,98385.19
2023-04-04T07:35:11.888Z,98380.66
2023-04-04T07:37:41.138Z,98400.72
2023-04-04T07:40:10.875Z,98391.97
2023-04-04T07:42:45.584Z,98385.94
2023-04-04T07:45:14.898Z,98413.78
2023-04-04T07:47:45.385Z,98403.59
2023-04-04T07:50:16.385Z,98395.28
2023-04-04T07:52:51.532Z,98406.09
2023-04-04T07:55:21.050Z,98394.97
2023-04-04T07:57:52.327Z,98380.72
2023-04-04T08:00:22.794Z,98367.34
2023-04-04T08:03:05.654Z,98364.53
2023-04-04T08:05:37.576Z,98363.03
2023-04-04T08:08:07.226Z,98389.44
2023-04-04T08:10:36.512Z,98378.28
2023-04-04T08:13:38.228Z,98367.53
2023-04-04T08:16:13.891Z,98361.91
2023-04-04T08:20:02.171Z,98362.41
2023-04-04T08:22:33.888Z,98336.03
2023-04-04T08:25:07.287Z,98337.00
2023-04-04T08:27:48.015Z,98348.09
2023-04-04T08:30:17.699Z,98334.00
2023-04-04T08:32:48.831Z,98342.75
2023-04-04T08:35:23.659Z,98326.88
2023-04-04T08:37:53.224Z,98336.91
2023-04-04T08:40:25.517Z,98337.53
2023-04-04T08:43:00.992Z,98348.03
2023-04-04T08:45:34.386Z,98349.47
2023-04-04T08:48:09.337Z,98335.88
2023-04-04T08:50:44.063Z,98331.13
2023-04-04T08:53:17.474Z,98331.59
2023-04-04T08:55:51.486Z,98324.91
2023-04-04T08:58:25.145Z,98332.63
2023-04-04T09:00:56.227Z,98331.25
2023-04-04T09:03:28.689Z,98330.91
2023-04-04T09:06:02.313Z,98319.56
2023-04-04T09:08:33.411Z,98329.94
2023-04-04T09:11:06.401Z,98338.22
2023-04-04T09:13:39.136Z,98344.00
2023-04-04T09:16:13.545Z,98334.94
2023-04-04T09:18:54.768Z,98327.75
2023-04-04T09:21:24.489Z,98326.84
2023-04-04T09:24:01.825Z,98334.41
2023-04-04T09:26:52.140Z,98333.88
2023-04-04T09:29:22.013Z,98325.13
2023-04-04T09:31:51.536Z,98338.53
2023-04-04T09:34:21.237Z,98332.13
2023-04-04T09:36:50.452Z,98333.28
2023-04-04T09:39:20.910Z,98327.50
2023-04-04T09:41:50.380Z,98330.16
2023-04-04T09:44:19.924Z,98326.38
2023-04-04T09:46:52.270Z,98330.75
2023-04-04T09:49:22.893Z,98321.13
2023-04-04T09:51:55.187Z,98319.84
2023-04-04T09:54:29.536Z,98330.81
2023-04-04T09:57:01.515Z,98315.84
2023-04-04T09:59:30.976Z,98329.59
2023-04-04T10:02:02.323Z,98307.41
2023-04-04T10:04:32.396Z,98309.50
2023-04-04T10:07:01.856Z,98302.50
2023-04-04T10:09:31.448Z,98291.03
2023-04-04T10:12:11.373Z,98291.50
2023-04-04T10:14:41.180Z,98297.38
2023-04-04T10:17:10.598Z,98293.50
2023-04-04T10:19:40.941Z,98289.72
2023-04-04T10:22:11.514Z,98283.31
2023-04-04T10:24:40.872Z,98284.53
2023-04-04T10:27:11.562Z,98287.53
2023-04-04T10:29:41.004Z,98280.22
2023-04-04T10:32:17.661Z,98278.41
2023-04-04T10:34:58.500Z,98276.16
2023-04-04T10:37:31.329Z,98280.09
2023-04-04T10:40:15.257Z,98279.13
2023-04-04T10:42:47.455Z,98287.06
2023-04-04T10:45:21.593Z,98274.56
2023-04-04T10:47:52.129Z,98269.13
2023-04-04T10:50:21.581Z,98273.75
2023-04-04T10:52:51.575Z,98263.41
2023-04-04T10:55:21.826Z,98273.41
2023-04-04T10:57:53.312Z,98269.75
2023-04-04T11:00:24.366Z,98255.47
2023-04-04T11:02:55.776Z,98279.16
2023-04-04T11:05:42.575Z,98286.81
2023-04-04T11:08:17.077Z,98272.22
2023-04-04T11:10:49.098Z,98262.81
2023-04-04T11:13:22.861Z,98268.31
2023-04-04T11:16:05.206Z,98254.34
2023-04-04T11:18:40.363Z,98260.03
2023-04-04T11:21:20.262Z,98266.09
2023-04-04T11:23:49.776Z,98282.72
2023-04-04T11:26:28.079Z,98266.72
2023-04-04T11:29:02.307Z,98259.03
2023-04-04T11:31:44.037Z,98241.81
2023-04-04T11:34:14.893Z,98268.25
2023-04-04T11:36:45.461Z,98258.28
2023-04-04T11:39:22.898Z,98270.31
2023-04-04T11:41:55.653Z,98252.78
2023-04-04T11:44:30.727Z,98241.44
2023-04-04T11:47:11.360Z,98241.47
2023-04-04T11:49:42.976Z,98227.19
2023-04-04T11:52:14.787Z,98255.81
2023-04-04T11:54:46.821Z,98255.22
2023-04-04T11:57:18.070Z,98251.00
2023-04-04T11:59:51.945Z,98249.53
2023-04-04T12:02:32.993Z,98234.16
2023-04-04T12:05:05.704Z,98240.72
2023-04-04T12:07:35.596Z,98248.84
2023-04-04T12:10:06.132Z,98257.91
2023-04-04T12:12:39.621Z,98236.56
2023-04-04T12:15:17.534Z,98241.00
2023-04-04T12:17:50.138Z,98245.94
2023-04-04T12:20:23.669Z,98226.00
2023-04-04T12:22:53.365Z,98239.69
2023-04-04T12:25:28.496Z,98239.16
2023-04-04T12:27:58.013Z,98230.16
2023-04-04T12:30:27.402Z,98238.63
2023-04-04T12:32:57.311Z,98238.19
2023-04-04T12:35:26.618Z,98222.53
2023-04-04T12:38:04.660Z,98240.63
2023-04-04T12:40:37.472Z,98233.19
2023-04-04T12:43:08.778Z,98232.78
2023-04-04T12:45:39.694Z,98233.78
2023-04-04T12:48:11.570Z,98239.81
2023-04-04T12:50:54.423Z,98221.31
2023-04-04T12:53:30.029Z,98236.75
2023-04-04T12:56:05.121Z,98228.56
2023-04-04T12:58:37.109Z,98231.81
2023-04-04T13:01:09.576Z,98244.69
2023-04-04T13:03:40.125Z,98236.66
2023-04-04T13:06:21.488Z,98240.50
2023-04-04T13:08:56.178Z,98228.69
2023-04-04T13:11:28.603Z,98222.72
2023-04-04T13:14:03.281Z,98249.13
2023-04-04T13:16:37.876Z,98223.75
2023-04-04T13:19:10.817Z,98205.66
2023-04-04T13:21:47.135Z,98203.38
2023-04-04T13:24:18.777Z,98210.34
2023-04-04T13:26:52.161Z,98198.69
2023-04-04T13:29:25.164Z,98206.50
2023-04-04T13:31:56.608Z,98203.13
2023-04-04T13:34:27.469Z,98194.13
2023-04-04T13:37:08.090Z,98209.59
2023-04-04T13:39:37.575Z,98199.34
2023-04-04T13:42:07.940Z,98207.25
2023-04-04T13:44:37.214Z,98185.63
2023-04-04T13:47:06.421Z,98190.84
2023-04-04T13:49:35.954Z,98199.94
2023-04-04T13:52:05.313Z,98173.28
2023-04-04T13:54:34.460Z,98201.63
2023-04-04T13:57:03.742Z,98200.53
2023-04-04T13:59:33.078Z,98209.69
2023-04-04T14:02:03.549Z,98226.22
2023-04-04T14:04:32.966Z,98232.13
2023-04-04T14:07:02.485Z,98237.31
2023-04-04T14:09:31.879Z,98236.63
2023-04-04T14:12:01.600Z,98235.78
2023-04-04T14:14:31.307Z,98236.34
2023-04-04T14:17:01.201Z,98241.00
2023-04-04T14:19:30.410Z,98254.59
2023-04-04T14:21:59.608Z,98242.06
2023-04-04T14:24:28.904Z,98235.38
2023-04-04T14:26:58.274Z,98252.13
2023-04-04T14:29:28.276Z,98250.09
2023-04-04T14:31:57.730Z,98250.66
2023-04-04T14:34:28.036Z,98264.03
2023-04-04T14:36:57.306Z,98274.28
2023-04-04T14:39:26.724Z,98284.22
2023-04-04T14:41:56.672Z,98267.28
2023-04-04T14:44:26.081Z,98283.25
2023-04-04T14:46:55.351Z,98281.13
2023-04-04T14:49:24.660Z,98298.16
2023-04-04T14:51:54.004Z,98296.06
2023-04-04T14:54:23.234Z,98280.88
2023-04-04T14:56:52.886Z,98300.25
2023-04-04T14:59:22.234Z,98305.38
2023-04-04T15:01:52.049Z,98298.50
2023-04-04T15:04:21.379Z,98289.59
2023-04-04T15:06:50.933Z,98318.38
2023-04-04T15:09:20.456Z,98308.91
2023-04-04T15:11:49.842Z,98304.69
2023-04-04T15:14:19.068Z,98313.03
2023-04-04T15:16:48.377Z,98312.44
2023-04-04T15:19:17.795Z,98302.22
2023-04-04T15:21:48.655Z,98312.50
2023-04-04T15:24:17.914Z,98320.19
2023-04-04T15:26:47.071Z,98328.75
2023-04-04T15:29:16.245Z,98315.84
2023-04-04T15:31:45.815Z,98330.97
2023-04-04T15:34:15.207Z,98320.56
2023-04-04T15:36:44.612Z,98321.22
2023-04-04T15:39:14.065Z,98331.59
2023-04-04T15:41:43.519Z,98340.53
2023-04-04T15:44:12.784Z,98326.31
2023-04-04T15:46:42.022Z,98316.53
2023-04-04T15:49:11.285Z,98326.47
2023-04-04T15:51:43.076Z,98329.13
2023-04-04T15:54:12.777Z,98336.28
2023-04-04T15:56:42.105Z,98323.38
2023-04-04T15:59:11.467Z,98336.41
2023-04-04T16:01:42.007Z,98340.31
2023-04-04T16:04:11.307Z,98334.19
2023-04-04T16:06:40.656Z,98353.97
2023-04-04T16:09:09.865Z,98351.88
2023-04-04T16:11:40.448Z,98350.50
2023-04-04T16:14:10.981Z,98350.84
2023-04-04T16:16:41.413Z,98375.84
2023-04-04T16:19:14.209Z,98355.94
2023-04-04T16:21:47.074Z,98360.81
2023-04-04T16:24:16.254Z,98360.03
2023-04-04T16:26:47.712Z,98357.31
2023-04-04T16:29:17.636Z,98371.75
2023-04-04T16:31:46.981Z,98383.75
2023-04-04T16:34:16.472Z,98367.41
2023-04-04T16:36:45.837Z,98367.44
2023-04-04T16:39:15.380Z,98382.84
2023-04-04T16:41:44.627Z,98392.72
2023-04-04T16:44:15.432Z,98391.94
2023-04-04T16:46:45.101Z,98388.06
2023-04-04T16:49:14.536Z,98390.81
2023-04-04T16:51:43.768Z,98397.75
2023-04-04T16:54:13.820Z,98397.25
2023-04-04T16:56:43.154Z,98403.09
2023-04-04T16:59:12.450Z,98410.69
2023-04-04T17:01:41.730Z,98415.84
2023-04-04T17:04:40.346Z,98423.59
2023-04-04T17:07:11.684Z,98427.13
2023-04-04T17:09:41.217Z,98431.13
2023-04-04T17:12:10.790Z,98429.97
2023-04-04T17:14:40.183Z,98434.81
2023-04-04T17:17:10.522Z,98434.59
2023-04-04T17:19:39.872Z,98446.50
2023-04-04T17:22:09.069Z,98443.59
2023-04-04T17:24:38.325Z,98456.97
2023-04-04T17:27:07.889Z,98444.00
2023-04-04T17:29:37.416Z,98457.25
2023-04-04T17:32:07.373Z,98455.25
2023-04-04T17:34:36.596Z,98458.31
2023-04-04T17:37:09.136Z,98459.06
2023-04-04T17:39:38.493Z,98450.28
2023-04-04T17:42:08.132Z,98455.78
2023-04-04T17:44:37.738Z,98457.97
2023-04-04T17:47:08.529Z,98471.34
2023-04-04T17:49:38.321Z,98481.34
2023-04-04T17:52:07.659Z,98486.94
2023-04-04T17:54:36.919Z,98480.28
2023-04-04T17:57:07.399Z,98485.09
2023-04-04T17:59:38.092Z,98489.97
2023-04-04T18:02:07.428Z,98500.78
2023-04-04T18:04:39.816Z,98495.63
2023-04-04T18:07:09.361Z,98498.59
2023-04-04T18:09:38.818Z,98502.13
2023-04-04T18:12:11.993Z,98491.88
2023-04-04T18:14:42.178Z,98504.94
2023-04-04T18:17:14.344Z,98503.09
2023-04-04T18:19:47.355Z,98506.41
2023-04-04T18:22:20.480Z,98513.34
2023-04-04T18:24:52.245Z,98514.72
2023-04-04T18:27:21.509Z,98522.47
2023-04-04T18:29:50.696Z,98520.34
2023-04-04T18:32:21.686Z,98522.25
2023-04-04T18:34:51.197Z,98521.75
2023-04-04T18:37:20.504Z,98516.34
2023-04-04T18:39:49.761Z,98538.47
2023-04-04T18:42:19.050Z,98519.72
2023-04-04T18:44:48.379Z,98529.41
2023-04-04T18:47:17.755Z,98527.25
2023-04-04T18:49:47.877Z,98522.91
2023-04-04T18:52:17.067Z,98524.13
2023-04-04T18:54:47.052Z,98529.28
2023-04-04T18:57:17.027Z,98523.78
2023-04-04T18:59:46.972Z,98529.19
2023-04-04T19:02:16.435Z,98535.19
2023-04-04T19:04:46.882Z,98525.44
2023-04-04T19:07:22.143Z,98526.25
2023-04-04T19:09:51.856Z,98533.19
2023-04-04T19:12:21.320Z,98542.00
2023-04-04T19:14:50.865Z,98533.09
2023-04-04T19:17:20.131Z,98535.00
2023-04-04T19:19:49.400Z,98535.31
2023-04-04T19:22:18.623Z,98546.03
2023-04-04T19:24:47.965Z,98545.66
2023-04-04T19:27:17.188Z,98542.97
2023-04-04T19:29:46.566Z,98543.63
2023-04-04T19:32:19.696Z,98542.28
2023-04-04T19:34:49.850Z,98542.44
2023-04-04T19:37:19.288Z,98536.31
2023-04-04T19:39:48.968Z,98546.38
2023-04-04T19:42:26.254Z,98550.53
2023-04-04T19:44:55.818Z,98536.47
2023-04-04T19:47:25.081Z,98544.06
2023-04-04T19:49:54.452Z,98550.31
2023-04-04T19:52:24.524Z,98541.63
2023-04-04T19:54:53.973Z,98543.25
2023-04-04T19:57:23.478Z,98538.09
2023-04-04T19:59:58.691Z,98533.75
2023-04-04T20:02:30.156Z,98526.44
2023-04-04T20:04:59.704Z,98524.97
2023-04-04T20:07:29.255Z,98529.44
2023-04-04T20:09:58.599Z,98519.00
2023-04-04T20:12:33.891Z,98528.50
2023-04-04T20:15:08.839Z,98528.50
2023-04-04T20:17:38.085Z,98521.84
2023-04-04T20:20:11.257Z,98526.19
2023-04-04T20:22:40.794Z,98530.84
2023-04-04T20:25:31.301Z,98511.47
2023-04-04T20:28:00.664Z,98537.47
2023-04-04T20:30:33.731Z,98535.44
2023-04-04T20:33:08.082Z,98548.06
2023-04-04T20:35:37.494Z,98548.47
2023-04-04T20:38:07.477Z,98542.81
2023-04-04T20:40:39.449Z,98528.47
2023-04-04T20:43:09.082Z,98541.63
2023-04-04T20:45:45.093Z,98537.69
2023-04-04T20:48:33.022Z,98526.59
2023-04-04T20:51:02.558Z,98542.59
2023-04-04T20:53:32.938Z,98542.03
2023-04-04T20:56:02.614Z,98540.72
2023-04-04T20:58:32.239Z,98544.75
2023-04-04T21:01:01.922Z,98545.06
2023-04-04T21:03:34.318Z,98546.94
2023-04-04T21:06:09.746Z,98546.56
2023-04-04T21:08:49.526Z,98550.72
2023-04-04T21:11:28.965Z,98548.31
2023-04-04T21:13:58.339Z,98547.38
2023-04-04T21:16:28.010Z,98549.25
2023-04-04T21:18:59.694Z,98554.53
2023-04-04T21:21:29.390Z,98548.44
2023-04-04T21:24:00.261Z,98548.06
2023-04-04T21:26:32.195Z,98530.28
2023-04-04T21:29:27.320Z,98550.75
2023-04-04T21:31:57.503Z,98544.25
2023-04-04T21:34:27.961Z,98547.63
2023-04-04T21:37:01.552Z,98537.47
2023-04-04T21:39:31.232Z,98549.69
2023-04-04T21:42:07.867Z,98550.63
2023-04-04T21:44:38.753Z,98552.63
2023-04-04T21:47:08.015Z,98553.72
2023-04-04T21:49:41.497Z,98548.03
2023-04-04T21:52:15.705Z,98541.38
2023-04-04T21:54:46.221Z,98545.84
2023-04-04T21:57:16.930Z,98547.91
2023-04-04T21:59:47.272Z,98553.41
2023-04-04T22:02:17.728Z,98545.03
2023-04-04T22:04:46.952Z,98549.78
2023-04-04T22:07:18.514Z,98544.06
2023-04-04T22:09:53.022Z,98537.59
2023-04-04T22:12:23.324Z,98540.41
2023-04-04T22:14:53.626Z,98541.91
2023-04-04T22:17:23.407Z,98542.03
2023-04-04T22:19:59.701Z,98541.22
2023-04-04T22:22:30.199Z,98542.03
2023-04-04T22:25:07.088Z,98542.16
2023-04-04T22:27:39.431Z,98538.66
2023-04-04T22:30:15.644Z,98528.50
2023-04-04T22:32:49.072Z,98531.19
2023-04-04T22:35:18.414Z,98538.38
2023-04-04T22:37:52.254Z,98533.09
2023-04-04T22:40:27.956Z,98527.28
2023-04-04T22:42:57.864Z,98539.88
2023-04-04T22:45:29.645Z,98540.69
2023-04-04T22:48:02.412Z,98535.91
2023-04-04T22:50:31.977Z,98536.84
2023-04-04T22:53:02.114Z,98532.66
2023-04-04T22:55:31.646Z,98528.50
2023-04-04T22:58:02.277Z,98532.00
2023-04-04T23:00:34.753Z,98532.66
2023-04-04T23:03:13.112Z,98532.38
2023-04-04T23:05:43.422Z,98526.97
2023-04-04T23:08:13.163Z,98526.56
2023-04-04T23:10:45.124Z,98528.69
2023-04-04T23:13:14.452Z,98532.47
2023-04-04T23:15:45.497Z,98529.47
2023-04-04T23:18:15.255Z,98515.94
2023-04-04T23:20:46.604Z,98520.81
2023-04-04T23:23:16.681Z,98529.47
2023-04-04T23:25:45.983Z,98523.25
2023-04-04T23:28:18.569Z,98520.28
2023-04-04T23:30:47.772Z,98517.72
2023-04-04T23:33:17.300Z,98518.94
2023-04-04T23:35:46.640Z,98520.56
2023-04-04T23:38:15.926Z,98519.34
2023-04-04T23:40:46.421Z,98521.66
2023-04-04T23:43:18.277Z,98529.13
2023-04-04T23:45:47.950Z,98526.28
2023-04-04T23:48:18.571Z,98519.50
2023-04-04T23:50:50.196Z,98527.22
2023-04-04T23:53:19.544Z,98525.59
2023-04-04T23:55:50.085Z,98519.50
2023-04-04T23:58:19.498Z,98523.31
